sensor_id;sensor_type;location;lat;lon;timestamp;P1;durP1;ratioP1;P2;durP2;ratioP2
77384;SDS011;66443;49.122;8.346;2024-02-21T00:00:23;12.10;;;4.90;;
77384;SDS011;66443;49.122;8.346;2024-02-21T00:02:48;9.43;;;5.60;;
77384;SDS011;66443;49.122;8.346;2024-02-21T00:05:13;8.15;;;5.10;;
77384;SDS011;66443;49.122;8.346;2024-02-21T00:07:38;15.53;;;5.40;;
77384;SDS011;66443;49.122;8.346;2024-02-21T00:10:03;12.50;;;5.25;;
77384;SDS011;66443;49.122;8.346;2024-02-21T00:12:29;8.23;;;5.10;;
77384;SDS011;66443;49.122;8.346;2024-02-21T00:14:54;8.57;;;5.47;;
77384;SDS011;66443;49.122;8.346;2024-02-21T00:17:19;9.90;;;4.90;;
77384;SDS011;66443;49.122;8.346;2024-02-21T00:19:44;6.80;;;4.50;;
77384;SDS011;66443;49.122;8.346;2024-02-21T00:22:09;9.03;;;4.97;;
77384;SDS011;66443;49.122;8.346;2024-02-21T00:24:34;11.60;;;5.30;;
77384;SDS011;66443;49.122;8.346;2024-02-21T00:27:00;8.33;;;5.10;;
77384;SDS011;66443;49.122;8.346;2024-02-21T00:29:25;8.30;;;5.17;;
77384;SDS011;66443;49.122;8.346;2024-02-21T00:31:50;9.30;;;5.33;;
77384;SDS011;66443;49.122;8.346;2024-02-21T00:34:16;12.97;;;5.43;;
77384;SDS011;66443;49.122;8.346;2024-02-21T00:36:41;8.30;;;5.17;;
77384;SDS011;66443;49.122;8.346;2024-02-21T00:39:06;8.73;;;5.07;;
77384;SDS011;66443;49.122;8.346;2024-02-21T00:41:31;13.07;;;5.00;;
77384;SDS011;66443;49.122;8.346;2024-02-21T00:43:57;9.63;;;4.63;;
77384;SDS011;66443;49.122;8.346;2024-02-21T00:46:22;13.07;;;5.87;;
77384;SDS011;66443;49.122;8.346;2024-02-21T00:48:47;8.17;;;5.00;;
77384;SDS011;66443;49.122;8.346;2024-02-21T00:51:13;8.73;;;4.17;;
77384;SDS011;66443;49.122;8.346;2024-02-21T00:53:38;9.00;;;4.53;;
77384;SDS011;66443;49.122;8.346;2024-02-21T00:56:04;5.83;;;4.57;;
77384;SDS011;66443;49.122;8.346;2024-02-21T00:58:30;6.83;;;4.73;;
77384;SDS011;66443;49.122;8.346;2024-02-21T01:00:55;11.90;;;5.53;;
77384;SDS011;66443;49.122;8.346;2024-02-21T01:03:20;9.33;;;4.53;;
77384;SDS011;66443;49.122;8.346;2024-02-21T01:05:45;6.88;;;5.28;;
77384;SDS011;66443;49.122;8.346;2024-02-21T01:08:10;9.07;;;5.35;;
77384;SDS011;66443;49.122;8.346;2024-02-21T01:10:36;7.83;;;5.00;;
77384;SDS011;66443;49.122;8.346;2024-02-21T01:13:01;8.33;;;5.07;;
77384;SDS011;66443;49.122;8.346;2024-02-21T01:15:26;6.97;;;5.13;;
77384;SDS011;66443;49.122;8.346;2024-02-21T01:17:51;8.40;;;5.07;;
77384;SDS011;66443;49.122;8.346;2024-02-21T01:20:19;10.27;;;5.13;;
77384;SDS011;66443;49.122;8.346;2024-02-21T01:22:44;12.67;;;5.23;;
77384;SDS011;66443;49.122;8.346;2024-02-21T01:25:09;7.80;;;5.23;;
77384;SDS011;66443;49.122;8.346;2024-02-21T01:27:35;14.37;;;5.57;;
77384;SDS011;66443;49.122;8.346;2024-02-21T01:30:00;10.73;;;5.23;;
77384;SDS011;66443;49.122;8.346;2024-02-21T01:32:25;7.83;;;5.13;;
77384;SDS011;66443;49.122;8.346;2024-02-21T01:34:50;6.07;;;4.43;;
77384;SDS011;66443;49.122;8.346;2024-02-21T01:37:16;13.90;;;5.40;;
77384;SDS011;66443;49.122;8.346;2024-02-21T01:39:41;7.73;;;5.43;;
77384;SDS011;66443;49.122;8.346;2024-02-21T01:42:06;10.17;;;4.90;;
77384;SDS011;66443;49.122;8.346;2024-02-21T01:44:31;10.00;;;5.90;;
77384;SDS011;66443;49.122;8.346;2024-02-21T01:46:56;8.43;;;4.83;;
77384;SDS011;66443;49.122;8.346;2024-02-21T01:49:22;6.63;;;4.77;;
77384;SDS011;66443;49.122;8.346;2024-02-21T01:51:47;14.63;;;5.00;;
77384;SDS011;66443;49.122;8.346;2024-02-21T01:54:13;9.07;;;4.40;;
77384;SDS011;66443;49.122;8.346;2024-02-21T01:56:38;8.83;;;4.63;;
77384;SDS011;66443;49.122;8.346;2024-02-21T01:59:04;5.23;;;4.70;;
77384;SDS011;66443;49.122;8.346;2024-02-21T02:01:29;6.77;;;4.77;;
77384;SDS011;66443;49.122;8.346;2024-02-21T02:03:54;8.20;;;4.63;;
77384;SDS011;66443;49.122;8.346;2024-02-21T02:06:20;10.93;;;4.60;;
77384;SDS011;66443;49.122;8.346;2024-02-21T02:08:45;7.73;;;4.10;;
77384;SDS011;66443;49.122;8.346;2024-02-21T02:11:10;12.77;;;4.87;;
77384;SDS011;66443;49.122;8.346;2024-02-21T02:13:35;7.90;;;4.03;;
77384;SDS011;66443;49.122;8.346;2024-02-21T02:16:01;10.20;;;4.30;;
77384;SDS011;66443;49.122;8.346;2024-02-21T02:18:26;6.40;;;4.07;;
77384;SDS011;66443;49.122;8.346;2024-02-21T02:20:51;11.97;;;4.50;;
77384;SDS011;66443;49.122;8.346;2024-02-21T02:25:46;6.70;;;3.93;;
77384;SDS011;66443;49.122;8.346;2024-02-21T02:28:14;12.13;;;4.43;;
77384;SDS011;66443;49.122;8.346;2024-02-21T02:30:39;8.10;;;4.23;;
77384;SDS011;66443;49.122;8.346;2024-02-21T02:33:05;7.27;;;4.20;;
77384;SDS011;66443;49.122;8.346;2024-02-21T02:35:30;8.80;;;4.53;;
77384;SDS011;66443;49.122;8.346;2024-02-21T02:37:55;7.50;;;3.93;;
77384;SDS011;66443;49.122;8.346;2024-02-21T02:40:21;6.30;;;4.93;;
77384;SDS011;66443;49.122;8.346;2024-02-21T02:42:46;8.20;;;4.13;;
77384;SDS011;66443;49.122;8.346;2024-02-21T02:45:13;7.10;;;4.80;;
77384;SDS011;66443;49.122;8.346;2024-02-21T02:47:39;6.13;;;4.50;;
77384;SDS011;66443;49.122;8.346;2024-02-21T02:50:05;8.40;;;4.63;;
77384;SDS011;66443;49.122;8.346;2024-02-21T02:52:31;11.17;;;4.33;;
77384;SDS011;66443;49.122;8.346;2024-02-21T02:54:56;12.07;;;4.77;;
77384;SDS011;66443;49.122;8.346;2024-02-21T02:57:21;10.90;;;5.07;;
77384;SDS011;66443;49.122;8.346;2024-02-21T02:59:47;12.93;;;4.60;;
77384;SDS011;66443;49.122;8.346;2024-02-21T03:02:12;4.60;;;3.73;;
77384;SDS011;66443;49.122;8.346;2024-02-21T03:04:39;5.23;;;4.63;;
77384;SDS011;66443;49.122;8.346;2024-02-21T03:07:04;8.73;;;4.83;;
77384;SDS011;66443;49.122;8.346;2024-02-21T03:09:30;6.57;;;4.30;;
77384;SDS011;66443;49.122;8.346;2024-02-21T03:11:55;10.23;;;5.90;;
77384;SDS011;66443;49.122;8.346;2024-02-21T03:14:22;11.00;;;5.03;;
77384;SDS011;66443;49.122;8.346;2024-02-21T03:16:47;7.23;;;4.23;;
77384;SDS011;66443;49.122;8.346;2024-02-21T03:19:12;15.83;;;4.63;;
77384;SDS011;66443;49.122;8.346;2024-02-21T03:21:37;7.10;;;4.60;;
77384;SDS011;66443;49.122;8.346;2024-02-21T03:24:02;6.28;;;4.45;;
77384;SDS011;66443;49.122;8.346;2024-02-21T03:26:28;7.37;;;4.40;;
77384;SDS011;66443;49.122;8.346;2024-02-21T03:28:53;7.60;;;4.70;;
77384;SDS011;66443;49.122;8.346;2024-02-21T03:31:18;7.33;;;4.47;;
77384;SDS011;66443;49.122;8.346;2024-02-21T03:33:43;7.77;;;4.63;;
77384;SDS011;66443;49.122;8.346;2024-02-21T03:36:15;5.87;;;4.90;;
77384;SDS011;66443;49.122;8.346;2024-02-21T03:38:40;9.17;;;5.03;;
77384;SDS011;66443;49.122;8.346;2024-02-21T03:41:05;12.70;;;5.77;;
77384;SDS011;66443;49.122;8.346;2024-02-21T03:43:31;5.50;;;4.27;;
77384;SDS011;66443;49.122;8.346;2024-02-21T03:45:56;6.70;;;4.47;;
77384;SDS011;66443;49.122;8.346;2024-02-21T03:48:21;6.83;;;4.40;;
77384;SDS011;66443;49.122;8.346;2024-02-21T03:50:46;7.10;;;4.40;;
77384;SDS011;66443;49.122;8.346;2024-02-21T03:53:11;6.77;;;4.43;;
77384;SDS011;66443;49.122;8.346;2024-02-21T03:55:37;6.73;;;4.43;;
77384;SDS011;66443;49.122;8.346;2024-02-21T03:58:02;11.23;;;5.60;;
77384;SDS011;66443;49.122;8.346;2024-02-21T04:00:27;11.80;;;5.03;;
77384;SDS011;66443;49.122;8.346;2024-02-21T04:02:53;8.00;;;5.05;;
77384;SDS011;66443;49.122;8.346;2024-02-21T04:05:18;9.20;;;4.77;;
77384;SDS011;66443;49.122;8.346;2024-02-21T04:07:43;5.57;;;4.10;;
77384;SDS011;66443;49.122;8.346;2024-02-21T04:10:08;6.53;;;4.63;;
77384;SDS011;66443;49.122;8.346;2024-02-21T04:12:33;9.10;;;4.83;;
77384;SDS011;66443;49.122;8.346;2024-02-21T04:14:59;8.03;;;4.43;;
77384;SDS011;66443;49.122;8.346;2024-02-21T04:17:24;8.60;;;4.17;;
77384;SDS011;66443;49.122;8.346;2024-02-21T04:19:49;8.07;;;4.90;;
77384;SDS011;66443;49.122;8.346;2024-02-21T04:22:15;12.63;;;4.83;;
77384;SDS011;66443;49.122;8.346;2024-02-21T04:24:40;10.68;;;4.97;;
77384;SDS011;66443;49.122;8.346;2024-02-21T04:27:05;9.37;;;5.10;;
77384;SDS011;66443;49.122;8.346;2024-02-21T04:29:30;6.80;;;4.50;;
77384;SDS011;66443;49.122;8.346;2024-02-21T04:31:55;7.17;;;4.77;;
77384;SDS011;66443;49.122;8.346;2024-02-21T04:34:21;4.22;;;3.80;;
77384;SDS011;66443;49.122;8.346;2024-02-21T04:36:46;9.80;;;4.67;;
77384;SDS011;66443;49.122;8.346;2024-02-21T04:39:11;9.73;;;4.67;;
77384;SDS011;66443;49.122;8.346;2024-02-21T04:41:36;9.60;;;4.93;;
77384;SDS011;66443;49.122;8.346;2024-02-21T04:44:02;6.87;;;4.70;;
77384;SDS011;66443;49.122;8.346;2024-02-21T04:46:28;8.70;;;5.30;;
77384;SDS011;66443;49.122;8.346;2024-02-21T04:48:54;8.43;;;5.03;;
77384;SDS011;66443;49.122;8.346;2024-02-21T04:51:19;7.70;;;4.57;;
77384;SDS011;66443;49.122;8.346;2024-02-21T04:53:44;10.37;;;4.97;;
77384;SDS011;66443;49.122;8.346;2024-02-21T04:56:09;12.43;;;5.00;;
77384;SDS011;66443;49.122;8.346;2024-02-21T04:58:37;11.57;;;5.10;;
77384;SDS011;66443;49.122;8.346;2024-02-21T05:01:02;6.17;;;5.03;;
77384;SDS011;66443;49.122;8.346;2024-02-21T05:03:27;9.57;;;5.67;;
77384;SDS011;66443;49.122;8.346;2024-02-21T05:05:53;10.20;;;4.37;;
77384;SDS011;66443;49.122;8.346;2024-02-21T05:08:18;13.20;;;6.17;;
77384;SDS011;66443;49.122;8.346;2024-02-21T05:10:43;5.05;;;4.22;;
77384;SDS011;66443;49.122;8.346;2024-02-21T05:13:08;10.53;;;4.97;;
77384;SDS011;66443;49.122;8.346;2024-02-21T05:15:34;7.90;;;4.83;;
77384;SDS011;66443;49.122;8.346;2024-02-21T05:17:59;12.47;;;5.30;;
77384;SDS011;66443;49.122;8.346;2024-02-21T05:20:24;11.00;;;5.30;;
77384;SDS011;66443;49.122;8.346;2024-02-21T05:22:49;7.30;;;4.83;;
77384;SDS011;66443;49.122;8.346;2024-02-21T05:25:14;6.73;;;4.83;;
77384;SDS011;66443;49.122;8.346;2024-02-21T05:27:39;6.27;;;4.57;;
77384;SDS011;66443;49.122;8.346;2024-02-21T05:30:05;8.30;;;5.03;;
77384;SDS011;66443;49.122;8.346;2024-02-21T05:32:31;12.43;;;5.80;;
77384;SDS011;66443;49.122;8.346;2024-02-21T05:34:56;7.77;;;4.60;;
77384;SDS011;66443;49.122;8.346;2024-02-21T05:37:23;8.83;;;5.00;;
77384;SDS011;66443;49.122;8.346;2024-02-21T05:39:48;12.47;;;6.13;;
77384;SDS011;66443;49.122;8.346;2024-02-21T05:42:13;10.83;;;4.87;;
77384;SDS011;66443;49.122;8.346;2024-02-21T05:44:38;5.70;;;4.70;;
77384;SDS011;66443;49.122;8.346;2024-02-21T05:47:03;8.47;;;4.80;;
77384;SDS011;66443;49.122;8.346;2024-02-21T05:49:29;5.10;;;4.60;;
77384;SDS011;66443;49.122;8.346;2024-02-21T05:51:54;11.10;;;4.80;;
77384;SDS011;66443;49.122;8.346;2024-02-21T05:54:19;11.23;;;4.57;;
77384;SDS011;66443;49.122;8.346;2024-02-21T05:56:47;9.77;;;4.47;;
77384;SDS011;66443;49.122;8.346;2024-02-21T05:59:12;7.83;;;4.63;;
77384;SDS011;66443;49.122;8.346;2024-02-21T06:01:38;16.13;;;6.07;;
77384;SDS011;66443;49.122;8.346;2024-02-21T06:04:03;7.30;;;4.60;;
77384;SDS011;66443;49.122;8.346;2024-02-21T06:06:29;9.37;;;5.27;;
77384;SDS011;66443;49.122;8.346;2024-02-21T06:08:54;9.43;;;5.77;;
77384;SDS011;66443;49.122;8.346;2024-02-21T06:11:20;8.67;;;4.93;;
77384;SDS011;66443;49.122;8.346;2024-02-21T06:13:45;9.13;;;5.27;;
77384;SDS011;66443;49.122;8.346;2024-02-21T06:16:10;9.57;;;4.67;;
77384;SDS011;66443;49.122;8.346;2024-02-21T06:18:36;7.23;;;4.73;;
77384;SDS011;66443;49.122;8.346;2024-02-21T06:21:02;9.37;;;5.83;;
77384;SDS011;66443;49.122;8.346;2024-02-21T06:23:27;12.73;;;5.87;;
77384;SDS011;66443;49.122;8.346;2024-02-21T06:25:52;8.97;;;4.53;;
77384;SDS011;66443;49.122;8.346;2024-02-21T06:28:17;14.10;;;5.10;;
77384;SDS011;66443;49.122;8.346;2024-02-21T06:30:42;8.93;;;4.47;;
77384;SDS011;66443;49.122;8.346;2024-02-21T06:33:08;6.70;;;5.10;;
77384;SDS011;66443;49.122;8.346;2024-02-21T06:35:33;10.33;;;4.40;;
77384;SDS011;66443;49.122;8.346;2024-02-21T06:37:58;9.27;;;5.03;;
77384;SDS011;66443;49.122;8.346;2024-02-21T06:40:23;7.78;;;4.72;;
77384;SDS011;66443;49.122;8.346;2024-02-21T06:42:49;10.03;;;4.57;;
77384;SDS011;66443;49.122;8.346;2024-02-21T06:45:15;5.07;;;4.57;;
77384;SDS011;66443;49.122;8.346;2024-02-21T06:47:40;7.97;;;5.53;;
77384;SDS011;66443;49.122;8.346;2024-02-21T06:50:05;8.57;;;4.80;;
77384;SDS011;66443;49.122;8.346;2024-02-21T06:52:30;10.33;;;4.83;;
77384;SDS011;66443;49.122;8.346;2024-02-21T06:54:56;6.33;;;4.53;;
77384;SDS011;66443;49.122;8.346;2024-02-21T06:57:21;5.90;;;4.27;;
77384;SDS011;66443;49.122;8.346;2024-02-21T06:59:46;5.67;;;4.57;;
77384;SDS011;66443;49.122;8.346;2024-02-21T07:02:11;7.63;;;4.70;;
77384;SDS011;66443;49.122;8.346;2024-02-21T07:04:36;5.83;;;4.13;;
77384;SDS011;66443;49.122;8.346;2024-02-21T07:07:01;16.10;;;4.83;;
77384;SDS011;66443;49.122;8.346;2024-02-21T07:09:27;8.87;;;4.33;;
77384;SDS011;66443;49.122;8.346;2024-02-21T07:11:53;13.37;;;4.97;;
77384;SDS011;66443;49.122;8.346;2024-02-21T07:14:18;10.80;;;5.07;;
77384;SDS011;66443;49.122;8.346;2024-02-21T07:16:44;8.83;;;4.23;;
77384;SDS011;66443;49.122;8.346;2024-02-21T07:19:09;10.37;;;5.33;;
77384;SDS011;66443;49.122;8.346;2024-02-21T07:21:34;12.03;;;5.00;;
77384;SDS011;66443;49.122;8.346;2024-02-21T07:23:59;10.93;;;5.47;;
77384;SDS011;66443;49.122;8.346;2024-02-21T07:26:24;22.70;;;6.63;;
77384;SDS011;66443;49.122;8.346;2024-02-21T07:28:50;6.80;;;4.63;;
77384;SDS011;66443;49.122;8.346;2024-02-21T07:31:15;4.77;;;4.10;;
77384;SDS011;66443;49.122;8.346;2024-02-21T07:33:40;9.67;;;5.50;;
77384;SDS011;66443;49.122;8.346;2024-02-21T07:36:06;5.57;;;5.00;;
77384;SDS011;66443;49.122;8.346;2024-02-21T07:38:32;5.47;;;4.70;;
77384;SDS011;66443;49.122;8.346;2024-02-21T07:40:57;7.07;;;4.70;;
77384;SDS011;66443;49.122;8.346;2024-02-21T07:43:22;7.80;;;4.82;;
77384;SDS011;66443;49.122;8.346;2024-02-21T07:45:47;7.13;;;4.77;;
77384;SDS011;66443;49.122;8.346;2024-02-21T07:48:12;8.37;;;5.37;;
77384;SDS011;66443;49.122;8.346;2024-02-21T07:50:37;8.50;;;4.73;;
77384;SDS011;66443;49.122;8.346;2024-02-21T07:53:03;13.53;;;5.63;;
77384;SDS011;66443;49.122;8.346;2024-02-21T07:55:28;11.77;;;4.90;;
77384;SDS011;66443;49.122;8.346;2024-02-21T07:57:53;7.10;;;4.90;;
77384;SDS011;66443;49.122;8.346;2024-02-21T08:00:19;10.63;;;5.03;;
77384;SDS011;66443;49.122;8.346;2024-02-21T08:02:48;8.17;;;5.23;;
77384;SDS011;66443;49.122;8.346;2024-02-21T08:05:13;8.83;;;5.33;;
77384;SDS011;66443;49.122;8.346;2024-02-21T08:07:38;11.73;;;5.10;;
77384;SDS011;66443;49.122;8.346;2024-02-21T08:10:04;8.20;;;4.67;;
77384;SDS011;66443;49.122;8.346;2024-02-21T08:12:29;11.50;;;5.00;;
77384;SDS011;66443;49.122;8.346;2024-02-21T08:14:54;7.57;;;4.63;;
77384;SDS011;66443;49.122;8.346;2024-02-21T08:17:19;7.60;;;4.25;;
77384;SDS011;66443;49.122;8.346;2024-02-21T08:19:44;7.07;;;4.80;;
77384;SDS011;66443;49.122;8.346;2024-02-21T08:22:10;5.65;;;3.55;;
77384;SDS011;66443;49.122;8.346;2024-02-21T08:24:35;11.53;;;4.30;;
77384;SDS011;66443;49.122;8.346;2024-02-21T08:27:00;8.90;;;4.90;;
77384;SDS011;66443;49.122;8.346;2024-02-21T08:29:25;7.30;;;5.10;;
77384;SDS011;66443;49.122;8.346;2024-02-21T08:31:50;8.77;;;4.27;;
77384;SDS011;66443;49.122;8.346;2024-02-21T08:34:15;9.73;;;4.33;;
77384;SDS011;66443;49.122;8.346;2024-02-21T08:36:41;8.60;;;5.03;;
77384;SDS011;66443;49.122;8.346;2024-02-21T08:39:06;6.93;;;4.83;;
77384;SDS011;66443;49.122;8.346;2024-02-21T08:41:32;5.47;;;4.80;;
77384;SDS011;66443;49.122;8.346;2024-02-21T08:43:57;8.77;;;5.20;;
77384;SDS011;66443;49.122;8.346;2024-02-21T08:46:22;10.25;;;4.90;;
77384;SDS011;66443;49.122;8.346;2024-02-21T08:48:49;7.80;;;4.77;;
77384;SDS011;66443;49.122;8.346;2024-02-21T08:51:14;11.90;;;5.23;;
77384;SDS011;66443;49.122;8.346;2024-02-21T08:53:39;7.10;;;4.10;;
77384;SDS011;66443;49.122;8.346;2024-02-21T08:56:05;12.43;;;5.27;;
77384;SDS011;66443;49.122;8.346;2024-02-21T08:58:30;9.23;;;4.50;;
77384;SDS011;66443;49.122;8.346;2024-02-21T09:00:55;6.57;;;4.17;;
77384;SDS011;66443;49.122;8.346;2024-02-21T09:03:21;14.67;;;4.90;;
77384;SDS011;66443;49.122;8.346;2024-02-21T09:05:46;6.73;;;4.63;;
77384;SDS011;66443;49.122;8.346;2024-02-21T09:08:12;7.13;;;4.40;;
77384;SDS011;66443;49.122;8.346;2024-02-21T09:10:37;10.03;;;4.60;;
77384;SDS011;66443;49.122;8.346;2024-02-21T09:13:03;5.80;;;4.20;;
77384;SDS011;66443;49.122;8.346;2024-02-21T09:15:28;5.63;;;4.30;;
77384;SDS011;66443;49.122;8.346;2024-02-21T09:17:53;5.17;;;4.20;;
77384;SDS011;66443;49.122;8.346;2024-02-21T09:20:19;6.47;;;3.80;;
77384;SDS011;66443;49.122;8.346;2024-02-21T09:22:44;9.47;;;3.90;;
77384;SDS011;66443;49.122;8.346;2024-02-21T09:25:09;4.60;;;3.60;;
77384;SDS011;66443;49.122;8.346;2024-02-21T09:27:36;4.87;;;3.70;;
77384;SDS011;66443;49.122;8.346;2024-02-21T09:30:01;5.10;;;3.60;;
77384;SDS011;66443;49.122;8.346;2024-02-21T09:32:28;5.67;;;4.33;;
77384;SDS011;66443;49.122;8.346;2024-02-21T09:34:54;6.43;;;3.47;;
77384;SDS011;66443;49.122;8.346;2024-02-21T09:37:19;7.63;;;3.33;;
77384;SDS011;66443;49.122;8.346;2024-02-21T09:39:44;5.60;;;3.73;;
77384;SDS011;66443;49.122;8.346;2024-02-21T09:42:11;4.23;;;3.23;;
77384;SDS011;66443;49.122;8.346;2024-02-21T09:44:37;8.13;;;3.80;;
77384;SDS011;66443;49.122;8.346;2024-02-21T09:47:52;4.50;;;3.00;;
77384;SDS011;66443;49.122;8.346;2024-02-21T09:49:50;5.37;;;3.27;;
77384;SDS011;66443;49.122;8.346;2024-02-21T09:52:16;4.63;;;3.17;;
77384;SDS011;66443;49.122;8.346;2024-02-21T09:54:42;4.87;;;3.00;;
77384;SDS011;66443;49.122;8.346;2024-02-21T09:57:09;8.23;;;3.70;;
77384;SDS011;66443;49.122;8.346;2024-02-21T09:59:34;7.17;;;3.93;;
77384;SDS011;66443;49.122;8.346;2024-02-21T10:02:00;6.13;;;2.90;;
77384;SDS011;66443;49.122;8.346;2024-02-21T10:04:25;6.40;;;3.37;;
77384;SDS011;66443;49.122;8.346;2024-02-21T10:06:50;8.37;;;3.30;;
77384;SDS011;66443;49.122;8.346;2024-02-21T10:09:22;5.33;;;3.23;;
77384;SDS011;66443;49.122;8.346;2024-02-21T10:11:48;5.17;;;3.47;;
77384;SDS011;66443;49.122;8.346;2024-02-21T10:14:14;5.43;;;3.43;;
77384;SDS011;66443;49.122;8.346;2024-02-21T10:16:40;6.87;;;3.33;;
77384;SDS011;66443;49.122;8.346;2024-02-21T10:19:05;6.03;;;3.03;;
77384;SDS011;66443;49.122;8.346;2024-02-21T10:21:31;3.67;;;2.83;;
77384;SDS011;66443;49.122;8.346;2024-02-21T10:23:56;8.57;;;3.60;;
77384;SDS011;66443;49.122;8.346;2024-02-21T10:26:21;7.17;;;3.40;;
77384;SDS011;66443;49.122;8.346;2024-02-21T10:28:47;6.40;;;3.00;;
77384;SDS011;66443;49.122;8.346;2024-02-21T10:31:23;3.30;;;2.80;;
77384;SDS011;66443;49.122;8.346;2024-02-21T10:36:20;5.60;;;3.33;;
77384;SDS011;66443;49.122;8.346;2024-02-21T10:38:45;4.77;;;3.40;;
77384;SDS011;66443;49.122;8.346;2024-02-21T10:41:10;6.40;;;3.05;;
77384;SDS011;66443;49.122;8.346;2024-02-21T10:43:39;5.17;;;3.50;;
77384;SDS011;66443;49.122;8.346;2024-02-21T10:46:08;7.63;;;3.00;;
77384;SDS011;66443;49.122;8.346;2024-02-21T10:48:43;5.93;;;2.57;;
77384;SDS011;66443;49.122;8.346;2024-02-21T10:51:18;7.03;;;3.07;;
77384;SDS011;66443;49.122;8.346;2024-02-21T10:56:31;4.13;;;3.07;;
77384;SDS011;66443;49.122;8.346;2024-02-21T10:59:01;2.83;;;2.60;;
77384;SDS011;66443;49.122;8.346;2024-02-21T11:01:27;6.83;;;2.97;;
77384;SDS011;66443;49.122;8.346;2024-02-21T11:03:55;3.57;;;2.83;;
77384;SDS011;66443;49.122;8.346;2024-02-21T11:06:21;4.40;;;2.50;;
77384;SDS011;66443;49.122;8.346;2024-02-21T11:08:47;6.03;;;2.33;;
77384;SDS011;66443;49.122;8.346;2024-02-21T11:11:12;5.90;;;2.47;;
77384;SDS011;66443;49.122;8.346;2024-02-21T11:13:42;6.77;;;2.80;;
77384;SDS011;66443;49.122;8.346;2024-02-21T11:16:11;4.63;;;2.73;;
77384;SDS011;66443;49.122;8.346;2024-02-21T11:18:37;2.70;;;2.50;;
77384;SDS011;66443;49.122;8.346;2024-02-21T11:21:02;6.43;;;2.70;;
77384;SDS011;66443;49.122;8.346;2024-02-21T11:23:29;6.73;;;3.00;;
77384;SDS011;66443;49.122;8.346;2024-02-21T11:26:10;5.67;;;2.50;;
77384;SDS011;66443;49.122;8.346;2024-02-21T11:28:44;5.83;;;3.67;;
77384;SDS011;66443;49.122;8.346;2024-02-21T11:31:13;3.77;;;2.33;;
77384;SDS011;66443;49.122;8.346;2024-02-21T11:33:41;4.70;;;2.83;;
77384;SDS011;66443;49.122;8.346;2024-02-21T11:36:07;4.67;;;2.80;;
77384;SDS011;66443;49.122;8.346;2024-02-21T11:38:33;4.10;;;2.93;;
77384;SDS011;66443;49.122;8.346;2024-02-21T11:40:58;3.92;;;2.60;;
77384;SDS011;66443;49.122;8.346;2024-02-21T11:43:23;3.27;;;2.63;;
77384;SDS011;66443;49.122;8.346;2024-02-21T11:45:48;4.27;;;2.40;;
77384;SDS011;66443;49.122;8.346;2024-02-21T11:48:14;3.67;;;2.27;;
77384;SDS011;66443;49.122;8.346;2024-02-21T11:50:39;4.13;;;2.37;;
77384;SDS011;66443;49.122;8.346;2024-02-21T11:53:04;5.47;;;2.27;;
77384;SDS011;66443;49.122;8.346;2024-02-21T11:55:30;4.20;;;2.40;;
77384;SDS011;66443;49.122;8.346;2024-02-21T11:57:55;6.63;;;2.70;;
77384;SDS011;66443;49.122;8.346;2024-02-21T12:00:20;3.03;;;2.17;;
77384;SDS011;66443;49.122;8.346;2024-02-21T12:02:46;7.23;;;2.70;;
77384;SDS011;66443;49.122;8.346;2024-02-21T12:05:11;5.23;;;2.57;;
77384;SDS011;66443;49.122;8.346;2024-02-21T12:07:36;4.07;;;2.00;;
77384;SDS011;66443;49.122;8.346;2024-02-21T12:10:06;8.57;;;3.50;;
77384;SDS011;66443;49.122;8.346;2024-02-21T12:12:31;3.13;;;2.37;;
77384;SDS011;66443;49.122;8.346;2024-02-21T12:15:01;4.20;;;2.80;;
77384;SDS011;66443;49.122;8.346;2024-02-21T12:17:26;3.93;;;2.07;;
77384;SDS011;66443;49.122;8.346;2024-02-21T12:19:51;6.03;;;2.07;;
77384;SDS011;66443;49.122;8.346;2024-02-21T12:22:19;3.88;;;1.98;;
77384;SDS011;66443;49.122;8.346;2024-02-21T12:24:44;2.93;;;2.17;;
77384;SDS011;66443;49.122;8.346;2024-02-21T12:27:12;4.67;;;2.00;;
77384;SDS011;66443;49.122;8.346;2024-02-21T12:29:37;4.63;;;2.50;;
77384;SDS011;66443;49.122;8.346;2024-02-21T12:32:03;2.53;;;2.00;;
77384;SDS011;66443;49.122;8.346;2024-02-21T12:34:29;4.33;;;2.10;;
77384;SDS011;66443;49.122;8.346;2024-02-21T12:36:56;6.63;;;2.50;;
77384;SDS011;66443;49.122;8.346;2024-02-21T12:39:22;4.90;;;2.50;;
77384;SDS011;66443;49.122;8.346;2024-02-21T12:41:47;4.80;;;2.47;;
77384;SDS011;66443;49.122;8.346;2024-02-21T12:44:12;5.20;;;2.33;;
77384;SDS011;66443;49.122;8.346;2024-02-21T12:46:37;4.73;;;2.50;;
77384;SDS011;66443;49.122;8.346;2024-02-21T12:49:03;3.87;;;2.07;;
77384;SDS011;66443;49.122;8.346;2024-02-21T12:51:29;5.07;;;2.40;;
77384;SDS011;66443;49.122;8.346;2024-02-21T12:53:54;3.00;;;2.27;;
77384;SDS011;66443;49.122;8.346;2024-02-21T12:56:19;3.87;;;2.63;;
77384;SDS011;66443;49.122;8.346;2024-02-21T12:58:45;3.33;;;2.27;;
77384;SDS011;66443;49.122;8.346;2024-02-21T13:01:10;8.03;;;2.50;;
77384;SDS011;66443;49.122;8.346;2024-02-21T13:03:35;4.63;;;2.70;;
77384;SDS011;66443;49.122;8.346;2024-02-21T13:06:00;4.20;;;2.33;;
77384;SDS011;66443;49.122;8.346;2024-02-21T13:08:25;5.72;;;3.20;;
77384;SDS011;66443;49.122;8.346;2024-02-21T13:10:51;3.93;;;2.53;;
77384;SDS011;66443;49.122;8.346;2024-02-21T13:13:16;3.13;;;2.30;;
77384;SDS011;66443;49.122;8.346;2024-02-21T13:15:41;3.17;;;2.50;;
77384;SDS011;66443;49.122;8.346;2024-02-21T13:18:08;3.17;;;2.87;;
77384;SDS011;66443;49.122;8.346;2024-02-21T13:20:33;5.63;;;2.70;;
77384;SDS011;66443;49.122;8.346;2024-02-21T13:22:58;5.30;;;2.33;;
77384;SDS011;66443;49.122;8.346;2024-02-21T13:25:24;4.73;;;2.57;;
77384;SDS011;66443;49.122;8.346;2024-02-21T13:27:49;4.47;;;2.40;;
77384;SDS011;66443;49.122;8.346;2024-02-21T13:30:14;2.43;;;1.80;;
77384;SDS011;66443;49.122;8.346;2024-02-21T13:32:41;7.40;;;2.90;;
77384;SDS011;66443;49.122;8.346;2024-02-21T13:35:07;6.17;;;2.20;;
77384;SDS011;66443;49.122;8.346;2024-02-21T13:37:33;4.50;;;2.43;;
77384;SDS011;66443;49.122;8.346;2024-02-21T13:39:58;7.60;;;2.67;;
77384;SDS011;66443;49.122;8.346;2024-02-21T13:42:23;5.90;;;2.50;;
77384;SDS011;66443;49.122;8.346;2024-02-21T13:44:52;5.53;;;2.07;;
77384;SDS011;66443;49.122;8.346;2024-02-21T13:47:17;2.10;;;1.90;;
77384;SDS011;66443;49.122;8.346;2024-02-21T13:49:42;3.00;;;2.00;;
77384;SDS011;66443;49.122;8.346;2024-02-21T13:52:08;4.27;;;2.10;;
77384;SDS011;66443;49.122;8.346;2024-02-21T13:54:34;7.17;;;2.47;;
77384;SDS011;66443;49.122;8.346;2024-02-21T13:56:59;4.63;;;2.50;;
77384;SDS011;66443;49.122;8.346;2024-02-21T13:59:24;6.83;;;2.83;;
77384;SDS011;66443;49.122;8.346;2024-02-21T14:01:51;4.53;;;2.20;;
77384;SDS011;66443;49.122;8.346;2024-02-21T14:04:16;7.30;;;2.20;;
77384;SDS011;66443;49.122;8.346;2024-02-21T14:06:41;3.77;;;2.30;;
77384;SDS011;66443;49.122;8.346;2024-02-21T14:09:11;5.93;;;2.00;;
77384;SDS011;66443;49.122;8.346;2024-02-21T14:11:36;5.80;;;2.40;;
77384;SDS011;66443;49.122;8.346;2024-02-21T14:14:03;2.37;;;1.80;;
77384;SDS011;66443;49.122;8.346;2024-02-21T14:16:28;5.50;;;2.37;;
77384;SDS011;66443;49.122;8.346;2024-02-21T14:18:54;7.27;;;2.50;;
77384;SDS011;66443;49.122;8.346;2024-02-21T14:21:19;4.97;;;2.07;;
77384;SDS011;66443;49.122;8.346;2024-02-21T14:23:45;4.10;;;2.30;;
77384;SDS011;66443;49.122;8.346;2024-02-21T14:26:10;4.07;;;2.10;;
77384;SDS011;66443;49.122;8.346;2024-02-21T14:28:35;2.57;;;1.90;;
77384;SDS011;66443;49.122;8.346;2024-02-21T14:31:00;3.50;;;2.07;;
77384;SDS011;66443;49.122;8.346;2024-02-21T14:33:29;3.20;;;2.10;;
77384;SDS011;66443;49.122;8.346;2024-02-21T14:35:55;5.33;;;1.90;;
77384;SDS011;66443;49.122;8.346;2024-02-21T14:38:20;5.50;;;2.92;;
77384;SDS011;66443;49.122;8.346;2024-02-21T14:40:46;5.07;;;3.10;;
77384;SDS011;66443;49.122;8.346;2024-02-21T14:43:11;3.78;;;2.45;;